sensor_id;sensor_type;location;lat;lon;timestamp;pressure;altitude;pressure_sealevel;temperature;humidity
11808;BME280;5961;42.640;23.380;2022-12-18T00:00:39;94734.97;;;7.77;100.00
11808;BME280;5961;42.640;23.380;2022-12-18T00:03:06;94743.34;;;7.70;100.00
11808;BME280;5961;42.640;23.380;2022-12-18T00:05:33;94762.06;;;7.73;100.00
11808;BME280;5961;42.640;23.380;2022-12-18T00:08:01;94753.53;;;7.63;100.00
11808;BME280;5961;42.640;23.380;2022-12-18T00:10:28;94735.31;;;7.48;100.00
11808;BME280;5961;42.640;23.380;2022-12-18T00:12:55;94769.09;;;7.51;100.00
11808;BME280;5961;42.640;23.380;2022-12-18T00:15:22;94758.84;;;7.49;100.00
11808;BME280;5961;42.640;23.380;2022-12-18T00:17:49;94767.44;;;7.41;100.00
11808;BME280;5961;42.640;23.380;2022-12-18T00:20:15;94771.34;;;7.44;100.00
11808;BME280;5961;42.640;23.380;2022-12-18T00:22:47;94769.88;;;7.38;100.00
11808;BME280;5961;42.640;23.380;2022-12-18T00:25:15;94774.41;;;7.37;100.00
11808;BME280;5961;42.640;23.380;2022-12-18T00:27:41;94800.13;;;7.32;100.00
11808;BME280;5961;42.640;23.380;2022-12-18T00:30:09;94786.91;;;7.32;100.00
11808;BME280;5961;42.640;23.380;2022-12-18T00:32:36;94779.19;;;7.35;100.00
11808;BME280;5961;42.640;23.380;2022-12-18T00:35:03;94791.25;;;7.28;100.00
11808;BME280;5961;42.640;23.380;2022-12-18T00:37:30;94802.09;;;7.26;100.00
11808;BME280;5961;42.640;23.380;2022-12-18T00:39:57;94793.88;;;7.28;100.00
11808;BME280;5961;42.640;23.380;2022-12-18T00:42:25;94790.66;;;7.31;100.00
11808;BME280;5961;42.640;23.380;2022-12-18T00:45:09;94777.13;;;7.18;100.00
11808;BME280;5961;42.640;23.380;2022-12-18T00:47:36;94786.63;;;7.19;100.00
11808;BME280;5961;42.640;23.380;2022-12-18T00:50:03;94770.38;;;7.12;100.00
11808;BME280;5961;42.640;23.380;2022-12-18T00:52:30;94784.56;;;7.16;100.00
11808;BME280;5961;42.640;23.380;2022-12-18T00:54:56;94821.78;;;7.20;100.00
11808;BME280;5961;42.640;23.380;2022-12-18T00:57:24;94798.19;;;7.10;100.00
11808;BME280;5961;42.640;23.380;2022-12-18T00:59:51;94789.75;;;7.08;100.00
11808;BME280;5961;42.640;23.380;2022-12-18T01:02:18;94796.50;;;7.14;100.00
11808;BME280;5961;42.640;23.380;2022-12-18T01:04:44;94797.38;;;7.09;100.00
11808;BME280;5961;42.640;23.380;2022-12-18T01:07:11;94814.22;;;7.13;100.00
11808;BME280;5961;42.640;23.380;2022-12-18T01:09:38;94803.25;;;7.06;100.00
11808;BME280;5961;42.640;23.380;2022-12-18T01:12:05;94814.41;;;7.03;100.00
11808;BME280;5961;42.640;23.380;2022-12-18T01:14:33;94819.28;;;6.96;100.00
11808;BME280;5961;42.640;23.380;2022-12-18T01:17:00;94812.41;;;6.95;100.00
11808;BME280;5961;42.640;23.380;2022-12-18T01:19:28;94813.78;;;6.93;100.00
11808;BME280;5961;42.640;23.380;2022-12-18T01:21:54;94814.00;;;6.96;100.00
11808;BME280;5961;42.640;23.380;2022-12-18T01:24:21;94817.53;;;6.92;100.00
11808;BME280;5961;42.640;23.380;2022-12-18T01:26:48;94821.00;;;6.87;100.00
11808;BME280;5961;42.640;23.380;2022-12-18T01:29:14;94820.00;;;6.83;100.00
11808;BME280;5961;42.640;23.380;2022-12-18T01:31:43;94823.97;;;6.86;100.00
11808;BME280;5961;42.640;23.380;2022-12-18T01:34:09;94825.88;;;6.80;100.00
11808;BME280;5961;42.640;23.380;2022-12-18T01:36:37;94832.31;;;6.74;100.00
11808;BME280;5961;42.640;23.380;2022-12-18T01:39:07;94772.91;;;6.39;100.00
11808;BME280;5961;42.640;23.380;2022-12-18T01:41:35;94829.41;;;6.38;100.00
11808;BME280;5961;42.640;23.380;2022-12-18T01:47:24;94850.41;;;6.30;100.00
11808;BME280;5961;42.640;23.380;2022-12-18T01:49:53;94836.06;;;6.36;100.00
11808;BME280;5961;42.640;23.380;2022-12-18T01:52:20;94836.56;;;6.19;100.00
11808;BME280;5961;42.640;23.380;2022-12-18T01:54:48;94840.97;;;6.24;100.00
11808;BME280;5961;42.640;23.380;2022-12-18T01:57:16;94847.88;;;6.20;100.00
11808;BME280;5961;42.640;23.380;2022-12-18T01:59:45;94843.47;;;6.15;100.00
11808;BME280;5961;42.640;23.380;2022-12-18T02:02:14;94846.47;;;6.08;100.00
11808;BME280;5961;42.640;23.380;2022-12-18T02:04:43;94850.69;;;6.10;100.00
11808;BME280;5961;42.640;23.380;2022-12-18T02:07:16;94838.06;;;6.06;100.00
11808;BME280;5961;42.640;23.380;2022-12-18T02:09:48;94845.91;;;6.12;100.00
11808;BME280;5961;42.640;23.380;2022-12-18T02:12:18;94852.75;;;6.13;100.00
11808;BME280;5961;42.640;23.380;2022-12-18T02:14:51;94855.38;;;6.13;100.00
11808;BME280;5961;42.640;23.380;2022-12-18T02:17:22;94850.34;;;6.16;100.00
11808;BME280;5961;42.640;23.380;2022-12-18T02:20:04;94879.38;;;6.16;100.00
11808;BME280;5961;42.640;23.380;2022-12-18T02:22:43;94850.59;;;6.15;100.00
11808;BME280;5961;42.640;23.380;2022-12-18T02:25:20;94869.00;;;6.20;100.00
11808;BME280;5961;42.640;23.380;2022-12-18T02:27:53;94861.88;;;6.20;100.00
11808;BME280;5961;42.640;23.380;2022-12-18T02:30:22;94871.94;;;6.18;100.00
11808;BME280;5961;42.640;23.380;2022-12-18T02:32:51;94864.28;;;6.17;100.00
11808;BME280;5961;42.640;23.380;2022-12-18T02:35:22;94861.38;;;6.18;100.00
11808;BME280;5961;42.640;23.380;2022-12-18T02:37:53;94866.31;;;6.25;100.00
11808;BME280;5961;42.640;23.380;2022-12-18T02:40:22;94842.75;;;6.10;100.00
11808;BME280;5961;42.640;23.380;2022-12-18T02:42:49;94872.38;;;6.25;100.00
11808;BME280;5961;42.640;23.380;2022-12-18T02:45:18;94874.72;;;6.27;100.00
11808;BME280;5961;42.640;23.380;2022-12-18T02:47:47;94867.22;;;6.15;100.00
11808;BME280;5961;42.640;23.380;2022-12-18T02:50:19;94869.53;;;6.22;100.00
11808;BME280;5961;42.640;23.380;2022-12-18T02:52:55;94872.00;;;6.32;100.00
11808;BME280;5961;42.640;23.380;2022-12-18T02:55:32;94877.38;;;6.27;100.00
11808;BME280;5961;42.640;23.380;2022-12-18T02:58:04;94871.03;;;6.28;100.00
11808;BME280;5961;42.640;23.380;2022-12-18T03:00:38;94885.78;;;6.29;100.00
11808;BME280;5961;42.640;23.380;2022-12-18T03:03:09;94887.09;;;6.31;100.00
11808;BME280;5961;42.640;23.380;2022-12-18T03:05:40;94903.69;;;6.32;100.00
11808;BME280;5961;42.640;23.380;2022-12-18T03:08:14;94896.53;;;6.14;100.00
11808;BME280;5961;42.640;23.380;2022-12-18T03:10:45;94892.25;;;6.18;100.00
11808;BME280;5961;42.640;23.380;2022-12-18T03:13:20;94891.78;;;6.16;100.00
11808;BME280;5961;42.640;23.380;2022-12-18T03:15:53;94898.56;;;6.22;100.00
11808;BME280;5961;42.640;23.380;2022-12-18T03:18:24;94902.44;;;6.05;100.00
11808;BME280;5961;42.640;23.380;2022-12-18T03:20:54;94899.25;;;6.08;100.00
11808;BME280;5961;42.640;23.380;2022-12-18T03:23:25;94902.91;;;6.13;100.00
11808;BME280;5961;42.640;23.380;2022-12-18T03:25:56;94907.38;;;6.12;100.00
11808;BME280;5961;42.640;23.380;2022-12-18T03:28:24;94907.88;;;6.14;100.00
11808;BME280;5961;42.640;23.380;2022-12-18T03:30:56;94893.50;;;6.01;100.00
11808;BME280;5961;42.640;23.380;2022-12-18T03:33:26;94913.94;;;6.15;100.00
11808;BME280;5961;42.640;23.380;2022-12-18T03:35:54;94923.31;;;6.02;100.00
11808;BME280;5961;42.640;23.380;2022-12-18T03:38:20;94924.84;;;6.08;100.00
11808;BME280;5961;42.640;23.380;2022-12-18T03:40:56;94949.88;;;6.11;100.00
11808;BME280;5961;42.640;23.380;2022-12-18T03:43:32;94928.00;;;6.10;100.00
11808;BME280;5961;42.640;23.380;2022-12-18T03:46:07;94924.84;;;6.08;100.00
11808;BME280;5961;42.640;23.380;2022-12-18T03:48:39;94956.16;;;6.15;100.00
11808;BME280;5961;42.640;23.380;2022-12-18T03:51:10;94954.66;;;6.08;100.00
11808;BME280;5961;42.640;23.380;2022-12-18T03:53:44;94952.69;;;5.95;100.00
11808;BME280;5961;42.640;23.380;2022-12-18T03:56:15;94974.75;;;6.04;100.00
11808;BME280;5961;42.640;23.380;2022-12-18T03:58:43;94974.91;;;5.89;100.00
11808;BME280;5961;42.640;23.380;2022-12-18T04:01:15;94954.56;;;5.95;100.00
11808;BME280;5961;42.640;23.380;2022-12-18T04:03:43;94951.19;;;5.84;100.00
11808;BME280;5961;42.640;23.380;2022-12-18T04:06:13;94956.75;;;5.83;100.00
11808;BME280;5961;42.640;23.380;2022-12-18T04:08:41;94945.91;;;5.84;100.00
11808;BME280;5961;42.640;23.380;2022-12-18T04:11:08;94951.25;;;5.79;100.00
11808;BME280;5961;42.640;23.380;2022-12-18T04:13:36;94954.94;;;5.78;100.00
11808;BME280;5961;42.640;23.380;2022-12-18T04:16:03;94960.47;;;5.82;100.00
11808;BME280;5961;42.640;23.380;2022-12-18T04:18:32;94981.63;;;5.77;100.00
11808;BME280;5961;42.640;23.380;2022-12-18T04:20:58;94962.88;;;5.78;100.00
11808;BME280;5961;42.640;23.380;2022-12-18T04:23:25;94974.25;;;5.74;100.00
11808;BME280;5961;42.640;23.380;2022-12-18T04:25:52;94961.66;;;5.66;100.00
11808;BME280;5961;42.640;23.380;2022-12-18T04:28:18;94980.34;;;5.69;100.00
11808;BME280;5961;42.640;23.380;2022-12-18T04:30:48;94964.41;;;5.56;100.00
11808;BME280;5961;42.640;23.380;2022-12-18T04:33:18;94984.09;;;5.63;100.00
11808;BME280;5961;42.640;23.380;2022-12-18T04:35:46;94989.19;;;5.54;100.00
11808;BME280;5961;42.640;23.380;2022-12-18T04:38:13;95000.47;;;5.60;100.00
11808;BME280;5961;42.640;23.380;2022-12-18T04:40:39;94994.78;;;5.48;100.00
11808;BME280;5961;42.640;23.380;2022-12-18T04:43:06;94998.75;;;5.45;100.00
11808;BME280;5961;42.640;23.380;2022-12-18T04:45:33;95004.53;;;5.47;100.00
11808;BME280;5961;42.640;23.380;2022-12-18T04:48:00;94947.69;;;5.08;100.00
11808;BME280;5961;42.640;23.380;2022-12-18T04:50:27;95023.34;;;5.36;100.00
11808;BME280;5961;42.640;23.380;2022-12-18T04:52:56;95021.31;;;5.28;99.03
11808;BME280;5961;42.640;23.380;2022-12-18T04:55:26;95031.34;;;5.21;99.42
11808;BME280;5961;42.640;23.380;2022-12-18T04:57:53;95033.44;;;5.24;99.41
11808;BME280;5961;42.640;23.380;2022-12-18T05:00:20;95030.59;;;5.15;99.29
11808;BME280;5961;42.640;23.380;2022-12-18T05:02:47;95040.09;;;5.16;98.39
11808;BME280;5961;42.640;23.380;2022-12-18T05:05:14;95050.91;;;5.15;98.29
11808;BME280;5961;42.640;23.380;2022-12-18T05:07:41;94997.84;;;4.92;97.99
11808;BME280;5961;42.640;23.380;2022-12-18T05:10:09;95029.34;;;5.08;98.10
11808;BME280;5961;42.640;23.380;2022-12-18T05:12:36;95033.31;;;5.05;97.90
11808;BME280;5961;42.640;23.380;2022-12-18T05:15:23;95081.50;;;5.06;98.01
11808;BME280;5961;42.640;23.380;2022-12-18T05:17:50;95043.13;;;4.94;98.67
11808;BME280;5961;42.640;23.380;2022-12-18T05:20:17;95054.69;;;4.98;98.87
11808;BME280;5961;42.640;23.380;2022-12-18T05:22:44;95071.09;;;4.85;98.77
11808;BME280;5961;42.640;23.380;2022-12-18T05:25:12;95073.44;;;4.92;98.87
11808;BME280;5961;42.640;23.380;2022-12-18T05:27:38;95062.81;;;5.02;98.82
11808;BME280;5961;42.640;23.380;2022-12-18T05:30:06;95066.84;;;4.94;98.41
11808;BME280;5961;42.640;23.380;2022-12-18T05:32:33;95057.06;;;5.00;98.54
11808;BME280;5961;42.640;23.380;2022-12-18T05:35:00;95073.09;;;5.04;98.36
11808;BME280;5961;42.640;23.380;2022-12-18T05:37:27;95062.03;;;5.07;97.92
11808;BME280;5961;42.640;23.380;2022-12-18T05:39:53;95076.28;;;5.01;97.61
11808;BME280;5961;42.640;23.380;2022-12-18T05:42:21;95092.59;;;5.03;97.86
11808;BME280;5961;42.640;23.380;2022-12-18T05:44:48;95080.75;;;5.00;97.33
11808;BME280;5961;42.640;23.380;2022-12-18T05:47:15;95072.63;;;4.91;97.54
11808;BME280;5961;42.640;23.380;2022-12-18T05:49:42;95080.00;;;4.94;98.04
11808;BME280;5961;42.640;23.380;2022-12-18T05:52:08;95079.50;;;4.92;97.37
11808;BME280;5961;42.640;23.380;2022-12-18T05:54:35;95102.16;;;4.88;98.12
11808;BME280;5961;42.640;23.380;2022-12-18T05:57:02;95103.50;;;4.86;97.24
11808;BME280;5961;42.640;23.380;2022-12-18T05:59:30;95109.22;;;4.93;96.69
11808;BME280;5961;42.640;23.380;2022-12-18T06:01:57;95117.97;;;4.88;96.83
11808;BME280;5961;42.640;23.380;2022-12-18T06:04:23;95092.91;;;4.91;96.53
11808;BME280;5961;42.640;23.380;2022-12-18T06:06:50;95090.81;;;4.88;97.02
11808;BME280;5961;42.640;23.380;2022-12-18T06:09:17;95096.31;;;4.96;97.04
11808;BME280;5961;42.640;23.380;2022-12-18T06:11:44;95111.66;;;4.84;96.78
11808;BME280;5961;42.640;23.380;2022-12-18T06:14:10;95087.44;;;4.82;97.23
11808;BME280;5961;42.640;23.380;2022-12-18T06:16:39;95094.78;;;4.85;96.78
11808;BME280;5961;42.640;23.380;2022-12-18T06:19:05;95090.13;;;4.67;96.79
11808;BME280;5961;42.640;23.380;2022-12-18T06:21:32;95132.22;;;4.72;96.25
11808;BME280;5961;42.640;23.380;2022-12-18T06:24:00;95126.44;;;4.70;96.08
11808;BME280;5961;42.640;23.380;2022-12-18T06:26:27;95129.13;;;4.65;95.58
11808;BME280;5961;42.640;23.380;2022-12-18T06:28:54;95117.50;;;4.66;96.92
11808;BME280;5961;42.640;23.380;2022-12-18T06:31:21;95134.09;;;4.67;96.66
11808;BME280;5961;42.640;23.380;2022-12-18T06:33:49;95150.91;;;4.76;97.51
11808;BME280;5961;42.640;23.380;2022-12-18T06:36:17;95130.66;;;4.66;98.13
11808;BME280;5961;42.640;23.380;2022-12-18T06:38:44;95138.56;;;4.71;97.74
11808;BME280;5961;42.640;23.380;2022-12-18T06:41:13;95135.41;;;4.69;98.17
11808;BME280;5961;42.640;23.380;2022-12-18T06:43:41;95103.34;;;4.42;97.77
11808;BME280;5961;42.640;23.380;2022-12-18T06:46:08;95142.75;;;4.72;97.62
11808;BME280;5961;42.640;23.380;2022-12-18T06:48:34;95155.94;;;4.67;97.48
11808;BME280;5961;42.640;23.380;2022-12-18T06:51:03;95150.16;;;4.70;97.31
11808;BME280;5961;42.640;23.380;2022-12-18T06:53:31;95165.97;;;4.65;96.25
11808;BME280;5961;42.640;23.380;2022-12-18T06:56:02;95159.38;;;4.68;96.30
11808;BME280;5961;42.640;23.380;2022-12-18T06:58:30;95171.47;;;4.69;95.72
11808;BME280;5961;42.640;23.380;2022-12-18T07:00:59;95192.31;;;4.65;95.90
11808;BME280;5961;42.640;23.380;2022-12-18T07:03:27;95172.78;;;4.66;95.69
11808;BME280;5961;42.640;23.380;2022-12-18T07:05:54;95158.59;;;4.67;96.04
11808;BME280;5961;42.640;23.380;2022-12-18T07:08:22;95167.56;;;4.56;94.81
11808;BME280;5961;42.640;23.380;2022-12-18T07:10:48;95191.81;;;4.53;94.62
11808;BME280;5961;42.640;23.380;2022-12-18T07:13:15;95184.41;;;4.60;94.24
11808;BME280;5961;42.640;23.380;2022-12-18T07:15:42;95190.72;;;4.64;94.47
11808;BME280;5961;42.640;23.380;2022-12-18T07:18:09;95182.31;;;4.62;94.36
11808;BME280;5961;42.640;23.380;2022-12-18T07:20:36;95161.78;;;4.49;94.35
11808;BME280;5961;42.640;23.380;2022-12-18T07:23:03;95189.13;;;4.68;94.58
11808;BME280;5961;42.640;23.380;2022-12-18T07:25:33;95201.25;;;4.64;95.56
11808;BME280;5961;42.640;23.380;2022-12-18T07:28:00;95180.44;;;4.68;95.10
11808;BME280;5961;42.640;23.380;2022-12-18T07:30:26;95168.06;;;4.63;94.49
11808;BME280;5961;42.640;23.380;2022-12-18T07:32:53;95202.31;;;4.68;94.70
11808;BME280;5961;42.640;23.380;2022-12-18T07:35:20;95173.03;;;4.75;94.69
11808;BME280;5961;42.640;23.380;2022-12-18T07:37:46;95185.66;;;4.78;94.36
11808;BME280;5961;42.640;23.380;2022-12-18T07:40:13;95188.59;;;4.76;93.51
11808;BME280;5961;42.640;23.380;2022-12-18T07:42:41;95208.59;;;4.77;93.83
11808;BME280;5961;42.640;23.380;2022-12-18T07:45:09;95218.09;;;4.68;93.43
11808;BME280;5961;42.640;23.380;2022-12-18T07:47:36;95229.16;;;4.65;93.95
11808;BME280;5961;42.640;23.380;2022-12-18T07:50:03;95202.56;;;4.62;93.67
11808;BME280;5961;42.640;23.380;2022-12-18T07:52:31;95214.69;;;4.53;93.50
11808;BME280;5961;42.640;23.380;2022-12-18T07:54:57;95218.09;;;4.58;93.47
11808;BME280;5961;42.640;23.380;2022-12-18T07:57:24;95220.72;;;4.63;92.97
11808;BME280;5961;42.640;23.380;2022-12-18T07:59:52;95206.00;;;4.57;93.43
11808;BME280;5961;42.640;23.380;2022-12-18T08:02:19;95247.34;;;4.47;94.00
11808;BME280;5961;42.640;23.380;2022-12-18T08:04:45;95246.81;;;4.50;94.01
11808;BME280;5961;42.640;23.380;2022-12-18T08:07:12;95266.03;;;4.50;93.64
11808;BME280;5961;42.640;23.380;2022-12-18T08:09:39;95216.56;;;4.47;93.96
11808;BME280;5961;42.640;23.380;2022-12-18T08:12:06;95228.63;;;4.48;93.61
11808;BME280;5961;42.640;23.380;2022-12-18T08:14:33;95256.56;;;4.44;93.41
11808;BME280;5961;42.640;23.380;2022-12-18T08:17:01;95238.13;;;4.34;93.95
11808;BME280;5961;42.640;23.380;2022-12-18T08:19:27;95247.84;;;4.33;94.18
11808;BME280;5961;42.640;23.380;2022-12-18T08:21:57;95201.28;;;4.09;94.64
11808;BME280;5961;42.640;23.380;2022-12-18T08:24:26;95250.75;;;4.37;94.63
11808;BME280;5961;42.640;23.380;2022-12-18T08:26:53;95266.81;;;4.35;93.71
11808;BME280;5961;42.640;23.380;2022-12-18T08:29:20;95291.56;;;4.34;94.14
11808;BME280;5961;42.640;23.380;2022-12-18T08:31:46;95266.56;;;4.37;93.62
11808;BME280;5961;42.640;23.380;2022-12-18T08:34:15;95299.19;;;4.36;93.92
11808;BME280;5961;42.640;23.380;2022-12-18T08:36:41;95251.28;;;4.29;93.62
11808;BME280;5961;42.640;23.380;2022-12-18T08:39:08;95263.41;;;4.40;93.12
11808;BME280;5961;42.640;23.380;2022-12-18T08:41:35;95288.94;;;4.34;93.26
11808;BME280;5961;42.640;23.380;2022-12-18T08:44:01;95261.00;;;4.38;94.15
11808;BME280;5961;42.640;23.380;2022-12-18T08:46:45;95293.13;;;4.35;93.84
11808;BME280;5961;42.640;23.380;2022-12-18T08:49:12;95269.19;;;4.22;93.35
11808;BME280;5961;42.640;23.380;2022-12-18T08:51:41;95286.53;;;4.28;93.66
11808;BME280;5961;42.640;23.380;2022-12-18T08:54:11;95263.09;;;4.26;94.15
11808;BME280;5961;42.640;23.380;2022-12-18T08:56:37;95277.84;;;4.32;93.57
11808;BME280;5961;42.640;23.380;2022-12-18T08:59:05;95255.75;;;4.28;94.41
11808;BME280;5961;42.640;23.380;2022-12-18T09:01:31;95256.56;;;4.29;93.31
11808;BME280;5961;42.640;23.380;2022-12-18T09:03:58;95269.97;;;4.27;93.55
11808;BME280;5961;42.640;23.380;2022-12-18T09:06:25;95259.97;;;4.34;93.29
11808;BME280;5961;42.640;23.380;2022-12-18T09:08:53;95262.84;;;4.33;92.72
11808;BME280;5961;42.640;23.380;2022-12-18T09:11:21;95259.44;;;4.37;92.08
11808;BME280;5961;42.640;23.380;2022-12-18T09:13:49;95259.44;;;4.32;92.40
11808;BME280;5961;42.640;23.380;2022-12-18T09:16:16;95259.72;;;4.41;91.81
11808;BME280;5961;42.640;23.380;2022-12-18T09:18:43;95263.41;;;4.35;91.65
11808;BME280;5961;42.640;23.380;2022-12-18T09:21:11;95271.81;;;4.47;91.27
11808;BME280;5961;42.640;23.380;2022-12-18T09:23:38;95276.81;;;4.49;91.68
11808;BME280;5961;42.640;23.380;2022-12-18T09:26:07;95279.72;;;4.47;92.68
11808;BME280;5961;42.640;23.380;2022-12-18T09:28:33;95266.56;;;4.52;92.58
11808;BME280;5961;42.640;23.380;2022-12-18T09:31:04;95267.06;;;4.54;90.94
11808;BME280;5961;42.640;23.380;2022-12-18T09:33:32;95283.94;;;4.53;90.39
11808;BME280;5961;42.640;23.380;2022-12-18T09:36:01;95269.19;;;4.57;90.33
11808;BME280;5961;42.640;23.380;2022-12-18T09:38:28;95283.41;;;4.56;89.70
11808;BME280;5961;42.640;23.380;2022-12-18T09:40:59;95285.25;;;4.61;89.47
11808;BME280;5961;42.640;23.380;2022-12-18T09:43:30;95279.19;;;4.55;88.44
11808;BME280;5961;42.640;23.380;2022-12-18T09:46:06;95296.06;;;4.59;88.29
11808;BME280;5961;42.640;23.380;2022-12-18T09:48:35;95285.25;;;4.61;87.19
11808;BME280;5961;42.640;23.380;2022-12-18T09:51:10;95273.13;;;4.70;86.93
11808;BME280;5961;42.640;23.380;2022-12-18T09:53:40;95261.25;;;4.72;86.43
11808;BME280;5961;42.640;23.380;2022-12-18T09:56:13;95239.16;;;4.48;86.36
11808;BME280;5961;42.640;23.380;2022-12-18T09:58:46;95274.16;;;4.84;86.80
11808;BME280;5961;42.640;23.380;2022-12-18T10:01:18;95266.00;;;4.80;86.84
11808;BME280;5961;42.640;23.380;2022-12-18T10:03:47;95277.06;;;4.82;87.14
11808;BME280;5961;42.640;23.380;2022-12-18T10:06:18;95254.94;;;4.83;86.83
11808;BME280;5961;42.640;23.380;2022-12-18T10:08:52;95293.66;;;4.83;85.50
11808;BME280;5961;42.640;23.380;2022-12-18T10:11:30;95283.13;;;4.83;85.63
11808;BME280;5961;42.640;23.380;2022-12-18T10:14:03;95289.97;;;4.74;85.05
11808;BME280;5961;42.640;23.380;2022-12-18T10:16:38;95286.56;;;4.68;85.71
11808;BME280;5961;42.640;23.380;2022-12-18T10:19:29;95273.66;;;4.67;85.73
11808;BME280;5961;42.640;23.380;2022-12-18T10:22:03;95291.03;;;4.73;85.90
11808;BME280;5961;42.640;23.380;2022-12-18T10:24:39;95286.56;;;4.68;85.83
11808;BME280;5961;42.640;23.380;2022-12-18T10:27:14;95303.41;;;4.72;86.62
11808;BME280;5961;42.640;23.380;2022-12-18T10:29:43;95267.31;;;4.63;86.30
11808;BME280;5961;42.640;23.380;2022-12-18T10:32:14;95280.22;;;4.69;85.88
11808;BME280;5961;42.640;23.380;2022-12-18T10:34:45;95277.88;;;4.68;85.48
11808;BME280;5961;42.640;23.380;2022-12-18T10:37:15;95299.72;;;4.63;85.36
11808;BME280;5961;42.640;23.380;2022-12-18T10:39:42;95264.97;;;4.61;84.84
11808;BME280;5961;42.640;23.380;2022-12-18T10:42:11;95278.38;;;4.60;84.55
11808;BME280;5961;42.640;23.380;2022-12-18T10:44:40;95265.72;;;4.72;84.94
11808;BME280;5961;42.640;23.380;2022-12-18T10:47:12;95282.84;;;4.69;85.62
11808;BME280;5961;42.640;23.380;2022-12-18T10:49:47;95275.50;;;4.76;85.28
11808;BME280;5961;42.640;23.380;2022-12-18T10:52:17;95267.84;;;4.80;85.63
11808;BME280;5961;42.640;23.380;2022-12-18T10:54:51;95279.16;;;4.75;85.45
11808;BME280;5961;42.640;23.380;2022-12-18T10:57:31;95272.31;;;4.79;85.81
11808;BME280;5961;42.640;23.380;2022-12-18T10:59:59;95272.06;;;4.76;85.93
11808;BME280;5961;42.640;23.380;2022-12-18T11:02:33;95292.34;;;4.75;86.24
11808;BME280;5961;42.640;23.380;2022-12-18T11:05:01;95264.97;;;4.71;86.45
11808;BME280;5961;42.640;23.380;2022-12-18T11:07:47;95280.50;;;4.73;86.71
11808;BME280;5961;42.640;23.380;2022-12-18T11:10:16;95280.78;;;4.71;86.03
11808;BME280;5961;42.640;23.380;2022-12-18T11:12:43;95268.38;;;4.72;85.37
11808;BME280;5961;42.640;23.380;2022-12-18T11:15:15;95275.50;;;4.71;86.40
11808;BME280;5961;42.640;23.380;2022-12-18T11:17:47;95289.97;;;4.74;85.71
11808;BME280;5961;42.640;23.380;2022-12-18T11:20:21;95270.25;;;4.71;84.64
11808;BME280;5961;42.640;23.380;2022-12-18T11:22:56;95254.44;;;4.61;83.54
11808;BME280;5961;42.640;23.380;2022-12-18T11:25:23;95282.09;;;4.74;82.55
11808;BME280;5961;42.640;23.380;2022-12-18T11:27:52;95273.66;;;4.67;81.33
11808;BME280;5961;42.640;23.380;2022-12-18T11:30:26;95284.44;;;4.70;81.43
11808;BME280;5961;42.640;23.380;2022-12-18T11:32:56;95279.19;;;4.70;82.59
11808;BME280;5961;42.640;23.380;2022-12-18T11:35:34;95291.31;;;4.71;81.95
11808;BME280;5961;42.640;23.380;2022-12-18T11:38:10;95302.38;;;4.68;82.44
11808;BME280;5961;42.640;23.380;2022-12-18T11:40:42;95282.31;;;4.72;82.10
11808;BME280;5961;42.640;23.380;2022-12-18T11:43:14;95315.00;;;4.76;83.31
11808;BME280;5961;42.640;23.380;2022-12-18T11:45:47;95301.28;;;4.79;82.71
11808;BME280;5961;42.640;23.380;2022-12-18T11:48:21;95283.13;;;4.73;81.96
11808;BME280;5961;42.640;23.380;2022-12-18T11:50:50;95270.22;;;4.66;81.89
11808;BME280;5961;42.640;23.380;2022-12-18T11:53:18;95290.22;;;4.72;82.90
11808;BME280;5961;42.640;23.380;2022-12-18T11:55:57;95299.72;;;4.78;82.35
11808;BME280;5961;42.640;23.380;2022-12-18T11:58:43;95278.66;;;4.73;82.38
11808;BME280;5961;42.640;23.380;2022-12-18T12:01:17;95300.00;;;4.77;80.63
11808;BME280;5961;42.640;23.380;2022-12-18T12:06:52;95285.75;;;4.78;80.35
11808;BME280;5961;42.640;23.380;2022-12-18T12:09:24;95293.66;;;4.83;80.54
11808;BME280;5961;42.640;23.380;2022-12-18T12:12:00;95294.47;;;4.83;80.65
11808;BME280;5961;42.640;23.380;2022-12-18T12:14:42;95297.09;;;4.83;81.50
11808;BME280;5961;42.640;23.380;2022-12-18T12:17:15;95291.81;;;4.88;80.72
11808;BME280;5961;42.640;23.380;2022-12-18T12:19:49;95288.13;;;4.89;81.35
11808;BME280;5961;42.640;23.380;2022-12-18T12:22:24;95291.81;;;4.88;81.21
11808;BME280;5961;42.640;23.380;2022-12-18T12:25:01;95303.38;;;4.97;81.49
11808;BME280;5961;42.640;23.380;2022-12-18T12:27:39;95287.28;;;4.99;81.87
11808;BME280;5961;42.640;23.380;2022-12-18T12:30:16;95289.66;;;5.06;82.29
11808;BME280;5961;42.640;23.380;2022-12-18T12:33:05;95293.34;;;4.99;81.62
11808;BME280;5961;42.640;23.380;2022-12-18T12:35:44;95288.63;;;4.96;81.94
11808;BME280;5961;42.640;23.380;2022-12-18T12:38:17;95291.28;;;4.91;82.50
11808;BME280;5961;42.640;23.380;2022-12-18T12:40:49;95302.06;;;5.00;82.10
11808;BME280;5961;42.640;23.380;2022-12-18T12:43:27;95306.28;;;5.01;82.11
11808;BME280;5961;42.640;23.380;2022-12-18T12:45:57;95299.19;;;5.02;82.78
11808;BME280;5961;42.640;23.380;2022-12-18T12:48:35;95303.91;;;5.05;82.64
11808;BME280;5961;42.640;23.380;2022-12-18T12:51:11;95293.38;;;5.05;82.42
11808;BME280;5961;42.640;23.380;2022-12-18T12:53:40;95291.78;;;5.04;82.48
11808;BME280;5961;42.640;23.380;2022-12-18T12:56:10;95303.38;;;5.13;82.59
11808;BME280;5961;42.640;23.380;2022-12-18T12:58:45;95317.88;;;5.00;83.43
11808;BME280;5961;42.640;23.380;2022-12-18T13:01:22;95303.91;;;5.05;83.38
11808;BME280;5961;42.640;23.380;2022-12-18T13:04:05;95308.66;;;5.08;82.49
11808;BME280;5961;42.640;23.380;2022-12-18T13:06:42;95326.56;;;5.11;83.50
11808;BME280;5961;42.640;23.380;2022-12-18T13:09:11;95314.44;;;5.10;83.52
11808;BME280;5961;42.640;23.380;2022-12-18T13:11:39;95293.09;;;4.96;83.17
11808;BME280;5961;42.640;23.380;2022-12-18T13:14:27;95288.91;;;4.90;83.34
11808;BME280;5961;42.640;23.380;2022-12-18T13:17:22;95328.91;;;5.17;83.79
11808;BME280;5961;42.640;23.380;2022-12-18T13:20:04;95309.38;;;5.23;83.43
11808;BME280;5961;42.640;23.380;2022-12-18T13:22:35;95317.03;;;5.25;83.35
11808;BME280;5961;42.640;23.380;2022-12-18T13:25:30;95318.59;;;5.26;84.08
11808;BME280;5961;42.640;23.380;2022-12-18T13:28:04;95341.28;;;5.27;84.41